createdAt,value
2022-09-28T00:01:25.301Z,2.40
2022-09-28T00:03:59.888Z,2.77
2022-09-28T00:06:30.505Z,2.50
2022-09-28T00:08:59.264Z,2.23
2022-09-28T00:11:29.282Z,2.03
2022-09-28T00:14:02.482Z,1.93
2022-09-28T00:16:34.007Z,2.20
2022-09-28T00:19:05.404Z,2.13
2022-09-28T00:21:36.254Z,2.13
2022-09-28T00:24:16.074Z,1.97
2022-09-28T00:26:48.016Z,2.23
2022-09-28T00:29:23.030Z,1.97
2022-09-28T00:31:54.143Z,2.40
2022-09-28T00:34:24.098Z,2.40
2022-09-28T00:36:52.501Z,2.37
2022-09-28T00:39:21.572Z,2.10
2022-09-28T00:41:50.452Z,1.80
2022-09-28T00:44:41.215Z,1.90
2022-09-28T00:47:42.399Z,2.33
2022-09-28T00:50:19.509Z,2.20
2022-09-28T00:52:53.251Z,2.10
2022-09-28T00:55:28.038Z,2.10
2022-09-28T00:58:01.852Z,2.20
2022-09-28T01:00:30.473Z,2.17
2022-09-28T01:02:59.815Z,2.27
2022-09-28T01:05:30.001Z,1.70
2022-09-28T01:07:59.536Z,1.97
2022-09-28T01:10:30.213Z,1.77
2022-09-28T01:12:59.351Z,2.13
2022-09-28T01:15:29.608Z,2.27
2022-09-28T01:18:09.906Z,1.90
2022-09-28T01:20:56.525Z,2.13
2022-09-28T01:24:01.483Z,1.97
2022-09-28T01:26:49.711Z,1.80
2022-09-28T01:29:35.144Z,1.93
2022-09-28T01:32:13.627Z,2.07
2022-09-28T01:34:51.384Z,1.93
2022-09-28T01:37:23.263Z,1.90
2022-09-28T01:39:54.141Z,2.03
2022-09-28T01:42:28.122Z,2.10
2022-09-28T01:45:01.531Z,1.90
2022-09-28T01:47:35.298Z,2.30
2022-09-28T01:50:11.034Z,1.80
2022-09-28T01:52:48.006Z,2.70
2022-09-28T01:55:26.073Z,2.17
2022-09-28T01:58:03.423Z,2.03
2022-09-28T02:00:36.276Z,1.93
2022-09-28T02:03:12.563Z,2.03
2022-09-28T02:05:51.759Z,2.00
2022-09-28T02:08:27.066Z,2.23
2022-09-28T02:11:01.285Z,2.50
2022-09-28T02:13:34.922Z,2.33
2022-09-28T02:16:08.327Z,2.00
2022-09-28T02:18:37.472Z,2.27
2022-09-28T02:21:12.232Z,2.17
2022-09-28T02:23:46.602Z,2.07
2022-09-28T02:26:18.694Z,2.53
2022-09-28T02:28:49.570Z,2.17
2022-09-28T02:31:18.247Z,2.17
2022-09-28T02:33:49.064Z,1.87
2022-09-28T02:36:17.750Z,2.23
2022-09-28T02:38:46.384Z,2.00
2022-09-28T02:41:28.024Z,2.20
2022-09-28T02:44:09.994Z,2.23
2022-09-28T02:46:50.507Z,2.10
2022-09-28T02:49:32.369Z,2.17
2022-09-28T02:52:16.424Z,2.00
2022-09-28T02:55:11.720Z,2.17
2022-09-28T02:57:54.018Z,2.20
2022-09-28T03:00:25.270Z,1.80
2022-09-28T03:03:03.292Z,2.10
2022-09-28T03:05:45.776Z,2.00
2022-09-28T03:08:20.622Z,2.10
2022-09-28T03:10:55.100Z,2.43
2022-09-28T03:13:24.205Z,2.33
2022-09-28T03:15:54.133Z,2.30
2022-09-28T03:18:23.095Z,2.60
2022-09-28T03:20:51.599Z,2.20
2022-09-28T03:23:24.884Z,2.13
2022-09-28T03:25:54.593Z,2.27
2022-09-28T03:28:23.390Z,1.93
2022-09-28T03:30:53.416Z,2.00
2022-09-28T03:33:22.314Z,2.07
2022-09-28T03:35:51.534Z,2.40
2022-09-28T03:38:21.227Z,1.90
2022-09-28T03:40:55.424Z,2.23
2022-09-28T03:43:25.164Z,2.10
2022-09-28T03:45:58.938Z,1.90
2022-09-28T03:48:32.749Z,2.30
2022-09-28T03:51:03.391Z,2.37
2022-09-28T03:53:32.229Z,2.53
2022-09-28T03:56:05.056Z,2.20
2022-09-28T03:58:34.414Z,2.00
2022-09-28T04:01:06.459Z,2.10
2022-09-28T04:03:35.204Z,2.20
2022-09-28T04:06:03.631Z,1.83
2022-09-28T04:08:32.309Z,2.13
2022-09-28T04:11:02.413Z,1.60
2022-09-28T04:13:32.199Z,1.83
2022-09-28T04:16:02.216Z,2.17
2022-09-28T04:18:35.756Z,1.93
2022-09-28T04:21:16.304Z,2.20
2022-09-28T04:23:48.878Z,1.83
2022-09-28T04:26:19.787Z,1.93
2022-09-28T04:29:09.090Z,2.53
2022-09-28T04:31:43.313Z,2.00
2022-09-28T04:34:14.780Z,2.40
2022-09-28T04:36:44.260Z,1.80
2022-09-28T04:39:13.442Z,2.63
2022-09-28T04:41:43.781Z,2.00
2022-09-28T04:44:12.430Z,2.53
2022-09-28T04:46:40.851Z,2.33
2022-09-28T04:49:30.422Z,2.87
2022-09-28T04:52:13.579Z,2.00
2022-09-28T04:54:46.080Z,2.60
2022-09-28T04:57:14.560Z,3.10
2022-09-28T04:59:43.247Z,2.27
2022-09-28T05:02:12.139Z,2.27
2022-09-28T05:05:01.969Z,1.93
2022-09-28T05:07:59.469Z,2.50
2022-09-28T05:10:27.984Z,2.43
2022-09-28T05:12:56.440Z,2.10
2022-09-28T05:15:24.961Z,2.73
2022-09-28T05:17:54.273Z,2.50
2022-09-28T05:20:45.476Z,2.00
2022-09-28T05:23:15.598Z,2.30
2022-09-28T05:25:46.433Z,1.93
2022-09-28T05:28:28.225Z,2.27
2022-09-28T05:31:32.466Z,2.33
2022-09-28T05:34:21.544Z,2.33
2022-09-28T05:36:51.407Z,2.43
2022-09-28T05:39:20.269Z,3.57
2022-09-28T05:41:48.795Z,2.90
2022-09-28T05:44:17.522Z,2.90
2022-09-28T05:46:46.498Z,3.40
2022-09-28T05:49:15.115Z,3.37
2022-09-28T05:51:43.553Z,3.10
2022-09-28T05:54:13.640Z,3.47
2022-09-28T05:56:46.705Z,3.30
2022-09-28T05:59:15.679Z,3.40
2022-09-28T06:01:44.221Z,2.53
2022-09-28T06:04:14.779Z,2.80
2022-09-28T06:06:44.501Z,3.43
2022-09-28T06:09:15.284Z,2.90
2022-09-28T06:12:02.759Z,2.30
2022-09-28T06:14:41.744Z,3.07
2022-09-28T06:17:10.297Z,3.20
2022-09-28T06:19:39.071Z,2.87
2022-09-28T06:22:27.883Z,2.87
2022-09-28T06:25:04.215Z,2.90
2022-09-28T06:27:32.741Z,3.07
2022-09-28T06:30:02.285Z,2.80
2022-09-28T06:32:31.226Z,3.13
2022-09-28T06:34:59.870Z,2.90
2022-09-28T06:37:29.269Z,3.67
2022-09-28T06:39:58.407Z,3.37
2022-09-28T06:42:28.406Z,4.40
2022-09-28T06:45:26.810Z,3.77
2022-09-28T06:48:32.579Z,3.00
2022-09-28T06:51:02.281Z,3.20
2022-09-28T06:53:38.626Z,3.40
2022-09-28T06:56:33.164Z,3.57
2022-09-28T06:59:03.403Z,4.40
2022-09-28T07:01:31.946Z,3.70
2022-09-28T07:04:31.213Z,4.10
2022-09-28T07:07:18.386Z,3.47
2022-09-28T07:10:13.389Z,4.47
2022-09-28T07:13:03.083Z,4.50
2022-09-28T07:15:37.957Z,4.03
2022-09-28T07:18:07.739Z,3.50
2022-09-28T07:20:49.410Z,3.50
2022-09-28T07:23:21.181Z,4.13
2022-09-28T07:26:18.695Z,4.43
2022-09-28T07:29:18.789Z,3.70
2022-09-28T07:32:18.186Z,3.13
2022-09-28T07:35:17.963Z,2.60
2022-09-28T07:38:00.475Z,2.57
2022-09-28T07:40:48.474Z,2.60
2022-09-28T07:43:20.746Z,2.70
2022-09-28T07:45:54.086Z,2.33
2022-09-28T07:48:24.307Z,3.00
2022-09-28T07:51:00.218Z,2.33
2022-09-28T07:53:55.305Z,2.80
2022-09-28T07:56:24.139Z,2.67
2022-09-28T07:59:00.096Z,2.10
2022-09-28T08:01:42.479Z,2.90
2022-09-28T08:04:15.071Z,2.33
2022-09-28T08:06:45.627Z,2.03
2022-09-28T08:09:15.256Z,2.07
2022-09-28T08:12:10.835Z,1.90
2022-09-28T08:14:46.896Z,2.07
2022-09-28T08:17:30.624Z,2.27
2022-09-28T08:20:20.930Z,1.70
2022-09-28T08:22:49.401Z,1.60
2022-09-28T08:25:17.993Z,1.43
2022-09-28T08:27:47.624Z,1.90
2022-09-28T08:30:16.719Z,1.47
2022-09-28T08:32:53.927Z,1.50
2022-09-28T08:35:43.165Z,2.07
2022-09-28T08:38:18.402Z,1.87
2022-09-28T08:41:14.139Z,1.40
2022-09-28T08:44:13.820Z,1.33
2022-09-28T08:47:34.181Z,1.60
2022-09-28T08:50:48.523Z,1.60
2022-09-28T08:53:36.737Z,1.20
2022-09-28T08:56:19.997Z,1.47
2022-09-28T08:58:57.671Z,1.20
2022-09-28T09:01:33.921Z,1.23
2022-09-28T09:04:06.637Z,1.40
2022-09-28T09:06:57.991Z,1.63
2022-09-28T09:09:49.256Z,1.47
2022-09-28T09:12:25.810Z,2.40
2022-09-28T09:15:20.369Z,1.60
2022-09-28T09:18:03.473Z,1.40
2022-09-28T09:21:13.685Z,1.23
2022-09-28T09:23:55.181Z,1.20
2022-09-28T09:26:36.676Z,1.50
2022-09-28T09:29:23.038Z,1.53
2022-09-28T09:32:09.519Z,1.30
2022-09-28T09:35:04.324Z,1.67
2022-09-28T09:38:09.423Z,1.67
2022-09-28T09:41:26.818Z,1.80
2022-09-28T09:44:52.942Z,1.50
2022-09-28T09:47:59.872Z,1.37
2022-09-28T09:50:35.246Z,1.93
2022-09-28T09:53:10.773Z,1.73
2022-09-28T09:55:45.040Z,1.23
2022-09-28T09:58:39.685Z,1.80
2022-09-28T10:01:24.565Z,2.07
2022-09-28T10:04:21.131Z,2.00
2022-09-28T10:06:52.872Z,1.90
2022-09-28T10:09:26.106Z,2.03
2022-09-28T10:11:55.300Z,1.70
2022-09-28T10:14:26.487Z,1.60
2022-09-28T10:17:05.381Z,2.10
2022-09-28T10:19:52.382Z,1.70
2022-09-28T10:22:42.009Z,1.80
2022-09-28T10:25:16.975Z,1.97
2022-09-28T10:27:49.333Z,1.87
2022-09-28T10:30:22.492Z,1.93
2022-09-28T10:32:53.728Z,2.73
2022-09-28T10:35:26.984Z,1.77
2022-09-28T10:38:05.055Z,1.87
2022-09-28T10:40:48.636Z,2.23
2022-09-28T10:43:26.452Z,1.67
2022-09-28T10:46:07.463Z,2.50
2022-09-28T10:48:50.528Z,2.73
2022-09-28T10:51:23.245Z,2.00
2022-09-28T10:54:02.388Z,2.20
2022-09-28T10:56:47.570Z,2.20
2022-09-28T10:59:26.587Z,2.23
2022-09-28T11:01:59.108Z,2.97
2022-09-28T11:04:30.089Z,2.67
2022-09-28T11:07:01.138Z,1.80
2022-09-28T11:09:32.166Z,1.60
2022-09-28T11:12:14.973Z,2.10
2022-09-28T11:14:46.225Z,2.67
2022-09-28T11:17:28.869Z,1.90
2022-09-28T11:19:59.697Z,1.80
2022-09-28T11:22:31.044Z,2.17
2022-09-28T11:25:24.187Z,1.80
2022-09-28T11:28:04.654Z,2.37
2022-09-28T11:30:53.529Z,2.20
2022-09-28T11:33:43.669Z,2.20
2022-09-28T11:36:52.925Z,2.13
2022-09-28T11:39:29.304Z,2.47
2022-09-28T11:42:16.222Z,11.27
2022-09-28T11:44:49.431Z,1.87
2022-09-28T11:47:44.224Z,2.03
2022-09-28T11:50:25.880Z,2.10
2022-09-28T11:53:02.869Z,2.00
2022-09-28T11:55:37.446Z,1.40
2022-09-28T11:58:13.024Z,2.03
2022-09-28T12:00:48.934Z,2.00
2022-09-28T12:03:23.223Z,2.03
2022-09-28T12:05:58.136Z,1.50
2022-09-28T12:08:30.269Z,1.93
2022-09-28T12:11:08.180Z,1.50
2022-09-28T12:14:00.766Z,1.53
2022-09-28T12:17:04.290Z,1.77
2022-09-28T12:19:30.998Z,2.20
2022-09-28T12:22:14.956Z,1.73
2022-09-28T12:24:47.605Z,1.17
2022-09-28T12:27:22.795Z,1.60
2022-09-28T12:29:58.420Z,1.43
2022-09-28T12:32:32.297Z,1.57
2022-09-28T12:35:01.333Z,1.90
2022-09-28T12:37:46.335Z,1.53
2022-09-28T12:40:39.262Z,1.80
2022-09-28T12:43:29.115Z,1.60
2022-09-28T12:46:14.236Z,1.53
2022-09-28T12:50:20.215Z,2.27
2022-09-28T12:52:24.538Z,1.70
2022-09-28T12:55:31.056Z,6.40
2022-09-28T12:58:03.622Z,2.30
2022-09-28T13:00:40.084Z,1.73
2022-09-28T13:03:54.436Z,1.70
2022-09-28T13:06:48.797Z,1.40
2022-09-28T13:09:25.744Z,1.90
2022-09-28T13:12:14.510Z,1.50
2022-09-28T13:15:24.901Z,1.50
2022-09-28T13:18:00.544Z,2.07
2022-09-28T13:20:49.441Z,1.60
2022-09-28T13:23:22.410Z,1.80
2022-09-28T13:25:56.755Z,1.97
2022-09-28T13:28:28.716Z,1.60
2022-09-28T13:33:36.988Z,2.03
2022-09-28T13:36:28.399Z,2.33
2022-09-28T13:38:59.563Z,1.60
2022-09-28T13:41:31.747Z,1.90
2022-09-28T13:44:28.725Z,1.87
2022-09-28T13:47:11.817Z,2.13
2022-09-28T13:49:54.090Z,1.50
2022-09-28T13:52:33.767Z,1.40
2022-09-28T13:55:20.983Z,2.50
2022-09-28T13:57:59.129Z,1.67
2022-09-28T14:00:32.471Z,1.30
2022-09-28T14:03:13.385Z,1.23
2022-09-28T14:06:05.727Z,1.53
2022-09-28T14:08:38.547Z,1.93
2022-09-28T14:11:40.260Z,2.10
2022-09-28T14:14:40.712Z,1.47
2022-09-28T14:17:57.186Z,1.57
2022-09-28T14:20:28.322Z,2.00
2022-09-28T14:23:35.885Z,1.50
2022-09-28T14:26:42.932Z,1.57
2022-09-28T14:29:28.834Z,1.43
2022-09-28T14:31:58.900Z,2.33
2022-09-28T14:34:39.760Z,1.77
2022-09-28T14:37:39.293Z,2.43
2022-09-28T14:40:36.126Z,3.27
2022-09-28T14:43:28.149Z,2.47
2022-09-28T14:46:32.493Z,1.67
2022-09-28T14:49:04.012Z,1.90
2022-09-28T14:52:02.593Z,2.93
2022-09-28T14:54:41.802Z,1.90
2022-09-28T14:57:19.005Z,1.50
2022-09-28T14:59:48.233Z,1.60
2022-09-28T15:02:25.655Z,1.67
2022-09-28T15:05:00.070Z,1.43
2022-09-28T15:07:33.010Z,1.90
2022-09-28T15:10:02.986Z,1.70
2022-09-28T15:12:32.283Z,1.80
2022-09-28T15:15:02.654Z,1.73
2022-09-28T15:17:39.249Z,1.90
2022-09-28T15:20:23.280Z,1.23
2022-09-28T15:22:58.986Z,2.13
2022-09-28T15:25:29.114Z,1.90
2022-09-28T15:27:59.478Z,1.80
2022-09-28T15:30:29.959Z,2.10
2022-09-28T15:33:19.555Z,2.10
2022-09-28T15:35:55.756Z,2.40
2022-09-28T15:38:24.764Z,1.90
2022-09-28T15:40:53.494Z,2.13
2022-09-28T15:43:28.999Z,1.87
2022-09-28T15:46:07.586Z,1.83
2022-09-28T15:48:41.871Z,1.47
2022-09-28T15:51:12.685Z,1.63
2022-09-28T15:53:48.741Z,1.70
2022-09-28T15:56:17.365Z,1.83
2022-09-28T15:59:05.856Z,2.10
2022-09-28T16:01:38.280Z,1.83
2022-09-28T16:04:40.167Z,2.03
2022-09-28T16:07:41.610Z,2.67
2022-09-28T16:10:30.985Z,3.10
2022-09-28T16:13:08.322Z,3.33
2022-09-28T16:15:39.491Z,3.63
2022-09-28T16:18:20.118Z,2.70
2022-09-28T16:20:51.197Z,3.00
2022-09-28T16:23:28.306Z,3.30
2022-09-28T16:26:02.068Z,3.67
2022-09-28T16:28:51.950Z,3.10
2022-09-28T16:31:34.687Z,3.23
2022-09-28T16:34:12.232Z,3.73
2022-09-28T16:36:45.572Z,3.77
2022-09-28T16:39:18.694Z,3.83
2022-09-28T16:41:50.287Z,3.20
2022-09-28T16:44:25.906Z,4.10
2022-09-28T16:46:57.537Z,4.17
2022-09-28T16:49:29.402Z,4.10
2022-09-28T16:51:57.871Z,4.23
2022-09-28T16:54:45.090Z,4.53
2022-09-28T16:57:16.188Z,4.37
2022-09-28T16:59:44.684Z,4.63
2022-09-28T17:02:42.052Z,4.43
2022-09-28T17:05:08.064Z,5.10
2022-09-28T17:07:36.650Z,3.60
2022-09-28T17:10:17.707Z,3.20
2022-09-28T17:12:46.722Z,4.00
2022-09-28T17:15:18.703Z,3.87
2022-09-28T17:17:47.947Z,4.70
2022-09-28T17:20:22.893Z,4.50
2022-09-28T17:22:53.494Z,4.03
2022-09-28T17:25:24.892Z,4.17
2022-09-28T17:27:57.774Z,8.50
2022-09-28T17:30:26.489Z,4.47
2022-09-28T17:32:54.952Z,3.83
2022-09-28T17:35:24.968Z,4.00
2022-09-28T17:37:54.429Z,3.57
2022-09-28T17:40:26.756Z,4.17
2022-09-28T17:42:56.487Z,5.30
2022-09-28T17:45:28.713Z,4.80
2022-09-28T17:47:59.303Z,4.63
2022-09-28T17:50:32.507Z,4.10
2022-09-28T17:53:06.032Z,3.60
2022-09-28T17:55:38.603Z,3.20
2022-09-28T17:58:16.992Z,3.67
2022-09-28T18:00:46.730Z,4.60
2022-09-28T18:03:17.179Z,4.00
2022-09-28T18:05:46.768Z,4.23
2022-09-28T18:08:18.371Z,5.77
2022-09-28T18:10:48.303Z,4.23
2022-09-28T18:13:16.761Z,5.77
2022-09-28T18:15:45.254Z,4.53
2022-09-28T18:18:16.004Z,4.27
2022-09-28T18:20:44.538Z,3.87
2022-09-28T18:23:12.977Z,3.63
2022-09-28T18:25:46.014Z,7.27
2022-09-28T18:28:16.265Z,4.03
2022-09-28T18:30:47.066Z,4.17
2022-09-28T18:33:16.153Z,5.20
2022-09-28T18:35:52.177Z,8.70
2022-09-28T18:38:21.116Z,5.20
2022-09-28T18:40:55.642Z,6.53
2022-09-28T18:43:25.513Z,5.23
2022-09-28T18:45:55.236Z,8.13
2022-09-28T18:48:27.727Z,6.27
2022-09-28T18:50:56.172Z,5.60
2022-09-28T18:53:24.571Z,4.30
2022-09-28T18:55:53.010Z,5.57
2022-09-28T18:58:21.426Z,4.67
2022-09-28T19:01:00.837Z,4.73
2022-09-28T19:03:42.515Z,5.97
2022-09-28T19:06:13.212Z,4.90
2022-09-28T19:08:44.468Z,4.73
2022-09-28T19:11:15.332Z,5.73
2022-09-28T19:13:44.371Z,6.37
2022-09-28T19:16:17.280Z,3.97
2022-09-28T19:18:46.297Z,10.77
2022-09-28T19:21:16.134Z,5.87
2022-09-28T19:23:49.163Z,5.13
2022-09-28T19:26:20.445Z,4.40
2022-09-28T19:28:50.449Z,3.37
2022-09-28T19:31:21.529Z,3.63
2022-09-28T19:33:50.505Z,5.50
2022-09-28T19:36:21.293Z,19.53
2022-09-28T19:38:51.344Z,22.40
2022-09-28T19:41:39.206Z,8.90
2022-09-28T19:44:13.514Z,11.90
2022-09-28T19:46:44.304Z,5.97
2022-09-28T19:49:14.260Z,5.13
2022-09-28T19:52:11.048Z,5.00
2022-09-28T19:54:36.568Z,4.00
2022-09-28T19:57:07.967Z,6.50
2022-09-28T19:59:37.037Z,4.73
2022-09-28T20:02:08.634Z,5.73
2022-09-28T20:04:38.180Z,7.17
2022-09-28T20:07:07.706Z,4.40
2022-09-28T20:09:37.002Z,3.63
2022-09-28T20:12:05.605Z,3.20
2022-09-28T20:14:37.913Z,4.33
2022-09-28T20:17:10.375Z,3.77
2022-09-28T20:19:39.234Z,4.00
2022-09-28T20:22:07.775Z,4.17
2022-09-28T20:24:36.340Z,3.90
2022-09-28T20:27:04.764Z,4.03
2022-09-28T20:29:33.598Z,3.53
2022-09-28T20:32:04.068Z,3.70
2022-09-28T20:34:34.609Z,3.43
2022-09-28T20:37:03.177Z,4.57
2022-09-28T20:39:31.667Z,5.50
2022-09-28T20:42:00.099Z,3.90
2022-09-28T20:44:28.570Z,2.63
2022-09-28T20:46:57.378Z,4.50
2022-09-28T20:49:27.235Z,3.87
2022-09-28T20:51:57.135Z,2.97
2022-09-28T20:54:25.706Z,3.30
2022-09-28T20:56:54.144Z,3.90
2022-09-28T20:59:25.987Z,2.97
2022-09-28T21:01:54.528Z,4.43
2022-09-28T21:04:23.629Z,3.33
2022-09-28T21:06:53.263Z,2.80
2022-09-28T21:09:23.163Z,3.10
2022-09-28T21:11:51.660Z,2.77
2022-09-28T21:14:20.906Z,3.23
2022-09-28T21:16:49.646Z,2.70
2022-09-28T21:19:18.087Z,3.20
2022-09-28T21:21:46.732Z,2.13
2022-09-28T21:24:15.304Z,3.23
2022-09-28T21:26:45.265Z,3.17
2022-09-28T21:29:15.499Z,2.30
2022-09-28T21:31:46.890Z,2.63
2022-09-28T21:34:18.688Z,2.60
2022-09-28T21:36:48.038Z,2.40
2022-09-28T21:39:16.787Z,2.70
2022-09-28T21:41:47.020Z,2.70
2022-09-28T21:44:15.631Z,3.73
2022-09-28T21:46:44.418Z,2.27
2022-09-28T21:49:14.317Z,2.77
2022-09-28T21:51:42.785Z,2.87
2022-09-28T21:54:12.066Z,3.73
2022-09-28T21:56:40.671Z,4.27
2022-09-28T21:59:10.724Z,5.20
2022-09-28T22:01:42.847Z,3.00
2022-09-28T22:04:12.159Z,3.10
2022-09-28T22:06:40.956Z,3.57
2022-09-28T22:09:09.545Z,4.83
2022-09-28T22:11:38.446Z,4.27
2022-09-28T22:14:06.891Z,4.60
2022-09-28T22:16:36.809Z,2.40
2022-09-28T22:19:05.316Z,2.67
2022-09-28T22:21:35.111Z,3.73
2022-09-28T22:24:06.533Z,6.33
2022-09-28T22:26:37.588Z,2.20
2022-09-28T22:29:07.689Z,1.70
2022-09-28T22:31:40.258Z,2.50
2022-09-28T22:34:11.055Z,1.97
2022-09-28T22:36:39.616Z,2.23
2022-09-28T22:39:08.265Z,2.60
2022-09-28T22:41:36.743Z,1.87
2022-09-28T22:44:05.294Z,2.20
2022-09-28T22:46:33.965Z,3.90
2022-09-28T22:49:04.093Z,2.07
2022-09-28T22:51:32.696Z,2.37
2022-09-28T22:54:01.313Z,3.40
2022-09-28T22:56:30.187Z,2.40
2022-09-28T22:58:58.904Z,2.30
2022-09-28T23:01:29.415Z,2.10
2022-09-28T23:03:59.395Z,2.83
2022-09-28T23:06:30.901Z,2.87
2022-09-28T23:08:59.385Z,2.53
2022-09-28T23:11:28.368Z,2.30
2022-09-28T23:13:58.394Z,1.60
2022-09-28T23:16:28.011Z,1.70
2022-09-28T23:18:57.217Z,2.10
2022-09-28T23:21:28.779Z,1.80
2022-09-28T23:23:58.630Z,2.60
2022-09-28T23:26:28.561Z,3.10
2022-09-28T23:28:57.067Z,2.30
2022-09-28T23:31:27.771Z,2.00
2022-09-28T23:33:59.844Z,1.97
2022-09-28T23:36:30.177Z,2.60
2022-09-28T23:38:58.768Z,3.37
2022-09-28T23:41:27.191Z,1.80
2022-09-28T23:43:55.690Z,1.87
2022-09-28T23:46:24.405Z,2.10
2022-09-28T23:48:53.214Z,2.10
2022-09-28T23:51:21.754Z,1.90
2022-09-28T23:53:51.651Z,1.73
2022-09-28T23:56:20.145Z,1.77
2022-09-28T23:58:48.596Z,1.73
